Terminal Aerodrome Forecast
Issued by NWS

Home | Current Version | Previous Version | Text Only | Print | Product List | Glossary On
Versions: 1 2 3 4 5 6 7 8 9 10 11 12 13 14 15 16 17 18 19 20 21 22 23 24 25 26 27 28 29 30 31
000
FTUS44 KOHX 230758 AAB
TAFCKV
TAF AMD
KCKV 230758Z 2308/2406 36018G26KT P6SM VCSH SCT015 OVC040
      TEMPO 2308/2309 BKN015
     FM230900 34019G28KT P6SM OVC015
     FM231100 32019G26KT P6SM OVC020
     FM232100 31011KT P6SM OVC025=

USA.gov is the U.S. government's official web portal to all federal, state and local government web resources and services.